Main page
METAR-TAF:

METAR-TAF

Airports :

Capital City Airport

Frankfort, Kentucky, United States

latitude: 38-11-05N, longitude: 084-54-12W, elevation: 804 ft

Current weather observation

The report was made 48 minutes ago, at 09:53 UTC
Calm wind
Temperature 25°F
Humidity 68%
Pressure 30.19 in. Hg
Visibility: 10 miles
Clear sky

METAR: KFFT 230953Z AUTO 00000KT 10SM CLR M04/M09 A3019 RMK AO2 SLP229 T10391089

Time: 05:41 (10:41 UTC)


TAF: missing

Weather observations and forecasts of more than 4000 airports (METAR and TAF reports).

The available stations are represented by yellow and red dots on the map.

Hover mouse over dot to see the name of the station.

Then click to see weather observations and forecasts.

To change the map : click on the green buttons with a black cross to zoom in, on the green button with a dash to zoom out, or on the green arrows for adjacent maps.


METAR-TAF: